sensor_id;sensor_type;location;lat;lon;timestamp;P1;durP1;ratioP1;P2;durP2;ratioP2
22320;SDS011;11328;53.928;18.522;2023-02-01T00:01:12;8.55;;;1.95;;
22320;SDS011;11328;53.928;18.522;2023-02-01T00:03:39;7.10;;;1.75;;
22320;SDS011;11328;53.928;18.522;2023-02-01T00:06:07;5.95;;;1.73;;
22320;SDS011;11328;53.928;18.522;2023-02-01T00:08:34;8.95;;;2.22;;
22320;SDS011;11328;53.928;18.522;2023-02-01T00:11:03;7.13;;;1.67;;
22320;SDS011;11328;53.928;18.522;2023-02-01T00:13:37;12.00;;;2.08;;
22320;SDS011;11328;53.928;18.522;2023-02-01T00:16:09;8.23;;;1.80;;
22320;SDS011;11328;53.928;18.522;2023-02-01T00:18:46;9.77;;;1.90;;
22320;SDS011;11328;53.928;18.522;2023-02-01T00:21:17;7.10;;;1.70;;
22320;SDS011;11328;53.928;18.522;2023-02-01T00:23:47;8.07;;;1.60;;
22320;SDS011;11328;53.928;18.522;2023-02-01T00:29:03;9.82;;;1.63;;
22320;SDS011;11328;53.928;18.522;2023-02-01T00:31:38;9.70;;;1.60;;
22320;SDS011;11328;53.928;18.522;2023-02-01T00:34:06;10.80;;;1.80;;
22320;SDS011;11328;53.928;18.522;2023-02-01T00:36:38;8.23;;;1.85;;
22320;SDS011;11328;53.928;18.522;2023-02-01T00:39:06;9.70;;;1.98;;
22320;SDS011;11328;53.928;18.522;2023-02-01T00:41:33;12.68;;;2.45;;
22320;SDS011;11328;53.928;18.522;2023-02-01T00:44:00;9.50;;;2.13;;
22320;SDS011;11328;53.928;18.522;2023-02-01T00:46:28;10.40;;;1.77;;
22320;SDS011;11328;53.928;18.522;2023-02-01T00:48:56;12.27;;;2.55;;
22320;SDS011;11328;53.928;18.522;2023-02-01T00:51:25;11.98;;;2.65;;
22320;SDS011;11328;53.928;18.522;2023-02-01T00:53:53;11.85;;;2.15;;
22320;SDS011;11328;53.928;18.522;2023-02-01T01:10:02;14.88;;;2.80;;
22320;SDS011;11328;53.928;18.522;2023-02-01T01:12:30;15.65;;;2.75;;
22320;SDS011;11328;53.928;18.522;2023-02-01T01:14:57;14.85;;;2.55;;
22320;SDS011;11328;53.928;18.522;2023-02-01T01:17:24;19.90;;;3.08;;
22320;SDS011;11328;53.928;18.522;2023-02-01T01:19:51;13.70;;;2.50;;
22320;SDS011;11328;53.928;18.522;2023-02-01T01:22:18;17.25;;;2.75;;
22320;SDS011;11328;53.928;18.522;2023-02-01T01:24:46;19.33;;;3.00;;
22320;SDS011;11328;53.928;18.522;2023-02-01T01:27:13;14.95;;;2.92;;
22320;SDS011;11328;53.928;18.522;2023-02-01T01:29:40;20.40;;;3.25;;
22320;SDS011;11328;53.928;18.522;2023-02-01T01:32:08;22.92;;;3.20;;
22320;SDS011;11328;53.928;18.522;2023-02-01T01:34:35;25.48;;;3.28;;
22320;SDS011;11328;53.928;18.522;2023-02-01T01:37:03;16.20;;;3.03;;
22320;SDS011;11328;53.928;18.522;2023-02-01T01:39:30;18.02;;;3.10;;
22320;SDS011;11328;53.928;18.522;2023-02-01T01:41:57;20.20;;;2.83;;
22320;SDS011;11328;53.928;18.522;2023-02-01T01:47:35;16.90;;;3.55;;
22320;SDS011;11328;53.928;18.522;2023-02-01T01:50:12;17.88;;;3.17;;
22320;SDS011;11328;53.928;18.522;2023-02-01T01:52:44;19.67;;;3.30;;
22320;SDS011;11328;53.928;18.522;2023-02-01T01:55:17;19.88;;;3.15;;
22320;SDS011;11328;53.928;18.522;2023-02-01T01:57:50;24.35;;;3.58;;
22320;SDS011;11328;53.928;18.522;2023-02-01T02:00:28;20.52;;;3.03;;
22320;SDS011;11328;53.928;18.522;2023-02-01T02:03:00;20.38;;;3.22;;
22320;SDS011;11328;53.928;18.522;2023-02-01T02:05:37;25.55;;;3.55;;
22320;SDS011;11328;53.928;18.522;2023-02-01T02:08:06;20.33;;;3.28;;
22320;SDS011;11328;53.928;18.522;2023-02-01T02:10:33;17.20;;;3.05;;
22320;SDS011;11328;53.928;18.522;2023-02-01T02:13:19;21.17;;;3.53;;
22320;SDS011;11328;53.928;18.522;2023-02-01T02:15:56;22.02;;;3.03;;
22320;SDS011;11328;53.928;18.522;2023-02-01T02:18:41;19.40;;;3.15;;
22320;SDS011;11328;53.928;18.522;2023-02-01T02:21:27;16.65;;;3.60;;
22320;SDS011;11328;53.928;18.522;2023-02-01T02:42:02;21.23;;;3.67;;
22320;SDS011;11328;53.928;18.522;2023-02-01T02:48:14;16.60;;;2.90;;
22320;SDS011;11328;53.928;18.522;2023-02-01T02:51:46;23.15;;;3.85;;
22320;SDS011;11328;53.928;18.522;2023-02-01T02:54:41;23.10;;;3.60;;
22320;SDS011;11328;53.928;18.522;2023-02-01T03:00:29;22.85;;;3.35;;
22320;SDS011;11328;53.928;18.522;2023-02-01T03:03:19;25.30;;;3.20;;
22320;SDS011;11328;53.928;18.522;2023-02-01T03:06:08;23.23;;;5.13;;
22320;SDS011;11328;53.928;18.522;2023-02-01T03:08:42;23.15;;;4.05;;
22320;SDS011;11328;53.928;18.522;2023-02-01T03:11:12;22.60;;;3.70;;
22320;SDS011;11328;53.928;18.522;2023-02-01T03:16:26;23.35;;;4.00;;
22320;SDS011;11328;53.928;18.522;2023-02-01T03:22:23;28.90;;;4.15;;
22320;SDS011;11328;53.928;18.522;2023-02-01T03:25:03;26.60;;;3.97;;
22320;SDS011;11328;53.928;18.522;2023-02-01T03:27:55;25.73;;;3.60;;
22320;SDS011;11328;53.928;18.522;2023-02-01T03:30:52;23.52;;;3.25;;
22320;SDS011;11328;53.928;18.522;2023-02-01T03:33:19;18.52;;;3.95;;
22320;SDS011;11328;53.928;18.522;2023-02-01T03:38:22;17.85;;;3.30;;
22320;SDS011;11328;53.928;18.522;2023-02-01T03:43:46;23.58;;;3.92;;
22320;SDS011;11328;53.928;18.522;2023-02-01T03:46:35;28.00;;;4.40;;
22320;SDS011;11328;53.928;18.522;2023-02-01T03:49:10;25.60;;;3.88;;
22320;SDS011;11328;53.928;18.522;2023-02-01T03:51:44;23.45;;;3.85;;
22320;SDS011;11328;53.928;18.522;2023-02-01T03:54:13;16.70;;;2.90;;
22320;SDS011;11328;53.928;18.522;2023-02-01T03:56:44;22.60;;;4.03;;
22320;SDS011;11328;53.928;18.522;2023-02-01T03:59:14;27.77;;;3.83;;
22320;SDS011;11328;53.928;18.522;2023-02-01T04:01:42;21.35;;;3.33;;
22320;SDS011;11328;53.928;18.522;2023-02-01T04:04:09;25.83;;;3.38;;
22320;SDS011;11328;53.928;18.522;2023-02-01T04:06:36;30.98;;;4.50;;
22320;SDS011;11328;53.928;18.522;2023-02-01T04:09:05;24.73;;;3.08;;
22320;SDS011;11328;53.928;18.522;2023-02-01T04:11:33;15.98;;;2.92;;
22320;SDS011;11328;53.928;18.522;2023-02-01T04:14:00;17.02;;;2.72;;
22320;SDS011;11328;53.928;18.522;2023-02-01T04:16:31;15.32;;;2.50;;
22320;SDS011;11328;53.928;18.522;2023-02-01T04:18:59;15.63;;;3.20;;
22320;SDS011;11328;53.928;18.522;2023-02-01T04:21:27;13.85;;;2.22;;
22320;SDS011;11328;53.928;18.522;2023-02-01T04:23:55;16.48;;;3.00;;
22320;SDS011;11328;53.928;18.522;2023-02-01T04:26:22;15.90;;;2.50;;
22320;SDS011;11328;53.928;18.522;2023-02-01T04:28:50;13.88;;;2.42;;
22320;SDS011;11328;53.928;18.522;2023-02-01T04:31:19;11.02;;;2.45;;
22320;SDS011;11328;53.928;18.522;2023-02-01T04:33:52;17.15;;;2.80;;
22320;SDS011;11328;53.928;18.522;2023-02-01T04:36:21;10.73;;;2.30;;
22320;SDS011;11328;53.928;18.522;2023-02-01T04:38:49;9.48;;;2.08;;
22320;SDS011;11328;53.928;18.522;2023-02-01T04:41:18;9.13;;;1.80;;
22320;SDS011;11328;53.928;18.522;2023-02-01T04:43:46;12.82;;;2.35;;
22320;SDS011;11328;53.928;18.522;2023-02-01T04:46:15;12.25;;;2.15;;
22320;SDS011;11328;53.928;18.522;2023-02-01T04:48:42;14.30;;;2.15;;
22320;SDS011;11328;53.928;18.522;2023-02-01T04:51:10;9.55;;;1.85;;
22320;SDS011;11328;53.928;18.522;2023-02-01T04:53:38;15.27;;;2.30;;
22320;SDS011;11328;53.928;18.522;2023-02-01T04:56:06;14.85;;;2.25;;
22320;SDS011;11328;53.928;18.522;2023-02-01T04:58:34;15.80;;;2.35;;
22320;SDS011;11328;53.928;18.522;2023-02-01T05:01:04;14.00;;;3.08;;
22320;SDS011;11328;53.928;18.522;2023-02-01T05:03:33;13.20;;;2.30;;
22320;SDS011;11328;53.928;18.522;2023-02-01T05:06:01;11.73;;;1.98;;
22320;SDS011;11328;53.928;18.522;2023-02-01T05:08:31;9.27;;;2.08;;
22320;SDS011;11328;53.928;18.522;2023-02-01T05:10:59;8.50;;;1.70;;
22320;SDS011;11328;53.928;18.522;2023-02-01T05:13:29;8.15;;;2.10;;
22320;SDS011;11328;53.928;18.522;2023-02-01T05:16:16;11.27;;;2.25;;
22320;SDS011;11328;53.928;18.522;2023-02-01T05:18:43;8.75;;;2.10;;
22320;SDS011;11328;53.928;18.522;2023-02-01T05:21:11;9.60;;;2.03;;
22320;SDS011;11328;53.928;18.522;2023-02-01T05:23:38;10.45;;;1.95;;
22320;SDS011;11328;53.928;18.522;2023-02-01T05:26:24;12.35;;;2.78;;
22320;SDS011;11328;53.928;18.522;2023-02-01T05:28:51;15.27;;;3.03;;
22320;SDS011;11328;53.928;18.522;2023-02-01T05:31:18;13.13;;;3.03;;
22320;SDS011;11328;53.928;18.522;2023-02-01T05:33:46;15.15;;;3.40;;
22320;SDS011;11328;53.928;18.522;2023-02-01T05:36:14;13.93;;;3.65;;
22320;SDS011;11328;53.928;18.522;2023-02-01T05:38:41;12.60;;;3.20;;
22320;SDS011;11328;53.928;18.522;2023-02-01T05:41:08;13.65;;;3.50;;
22320;SDS011;11328;53.928;18.522;2023-02-01T05:43:36;14.90;;;3.25;;
22320;SDS011;11328;53.928;18.522;2023-02-01T05:46:03;14.50;;;3.22;;
22320;SDS011;11328;53.928;18.522;2023-02-01T05:48:30;11.75;;;3.35;;
22320;SDS011;11328;53.928;18.522;2023-02-01T05:50:58;13.05;;;2.88;;
22320;SDS011;11328;53.928;18.522;2023-02-01T05:53:25;9.35;;;2.22;;
22320;SDS011;11328;53.928;18.522;2023-02-01T05:55:52;10.73;;;2.20;;
22320;SDS011;11328;53.928;18.522;2023-02-01T05:58:19;10.93;;;2.03;;
22320;SDS011;11328;53.928;18.522;2023-02-01T06:00:47;10.20;;;2.08;;
22320;SDS011;11328;53.928;18.522;2023-02-01T06:03:14;8.10;;;1.90;;
22320;SDS011;11328;53.928;18.522;2023-02-01T06:05:43;11.32;;;1.88;;
22320;SDS011;11328;53.928;18.522;2023-02-01T06:08:11;10.43;;;1.95;;
22320;SDS011;11328;53.928;18.522;2023-02-01T06:10:39;12.77;;;2.03;;
22320;SDS011;11328;53.928;18.522;2023-02-01T06:13:06;10.20;;;2.72;;
22320;SDS011;11328;53.928;18.522;2023-02-01T06:15:34;15.85;;;3.72;;
22320;SDS011;11328;53.928;18.522;2023-02-01T06:18:03;9.27;;;3.10;;
22320;SDS011;11328;53.928;18.522;2023-02-01T06:20:31;10.65;;;2.92;;
22320;SDS011;11328;53.928;18.522;2023-02-01T06:23:01;10.45;;;2.83;;
22320;SDS011;11328;53.928;18.522;2023-02-01T06:25:28;14.70;;;2.95;;
22320;SDS011;11328;53.928;18.522;2023-02-01T06:27:55;10.80;;;3.05;;
22320;SDS011;11328;53.928;18.522;2023-02-01T06:30:26;18.02;;;3.38;;
22320;SDS011;11328;53.928;18.522;2023-02-01T06:32:53;13.18;;;3.13;;
22320;SDS011;11328;53.928;18.522;2023-02-01T06:35:21;16.75;;;4.18;;
22320;SDS011;11328;53.928;18.522;2023-02-01T06:37:48;14.65;;;3.50;;
22320;SDS011;11328;53.928;18.522;2023-02-01T06:40:16;18.70;;;4.57;;
22320;SDS011;11328;53.928;18.522;2023-02-01T06:42:44;15.57;;;3.95;;
22320;SDS011;11328;53.928;18.522;2023-02-01T06:45:11;20.20;;;3.58;;
22320;SDS011;11328;53.928;18.522;2023-02-01T06:47:38;18.65;;;3.58;;
22320;SDS011;11328;53.928;18.522;2023-02-01T06:50:05;18.75;;;3.50;;
22320;SDS011;11328;53.928;18.522;2023-02-01T06:52:33;14.20;;;3.55;;
22320;SDS011;11328;53.928;18.522;2023-02-01T06:55:02;16.38;;;3.33;;
22320;SDS011;11328;53.928;18.522;2023-02-01T06:57:29;21.10;;;3.85;;
22320;SDS011;11328;53.928;18.522;2023-02-01T06:59:59;16.02;;;3.85;;
22320;SDS011;11328;53.928;18.522;2023-02-01T07:02:26;17.63;;;4.60;;
22320;SDS011;11328;53.928;18.522;2023-02-01T07:04:53;20.00;;;4.20;;
22320;SDS011;11328;53.928;18.522;2023-02-01T07:07:20;18.92;;;4.63;;
22320;SDS011;11328;53.928;18.522;2023-02-01T07:09:49;21.65;;;4.55;;
22320;SDS011;11328;53.928;18.522;2023-02-01T07:12:16;16.42;;;3.70;;
22320;SDS011;11328;53.928;18.522;2023-02-01T07:14:45;18.77;;;3.50;;
22320;SDS011;11328;53.928;18.522;2023-02-01T07:17:12;15.45;;;3.58;;
22320;SDS011;11328;53.928;18.522;2023-02-01T07:19:40;19.83;;;3.65;;
22320;SDS011;11328;53.928;18.522;2023-02-01T07:22:07;19.95;;;3.92;;
22320;SDS011;11328;53.928;18.522;2023-02-01T07:24:36;18.17;;;3.50;;
22320;SDS011;11328;53.928;18.522;2023-02-01T07:27:03;17.40;;;3.50;;
22320;SDS011;11328;53.928;18.522;2023-02-01T07:29:30;23.30;;;3.38;;
22320;SDS011;11328;53.928;18.522;2023-02-01T07:31:58;16.25;;;3.42;;
22320;SDS011;11328;53.928;18.522;2023-02-01T07:34:25;17.98;;;3.78;;
22320;SDS011;11328;53.928;18.522;2023-02-01T07:36:52;15.52;;;3.17;;
22320;SDS011;11328;53.928;18.522;2023-02-01T07:39:19;20.10;;;3.83;;
22320;SDS011;11328;53.928;18.522;2023-02-01T07:41:47;27.23;;;3.83;;
22320;SDS011;11328;53.928;18.522;2023-02-01T07:44:14;22.98;;;3.95;;
22320;SDS011;11328;53.928;18.522;2023-02-01T07:46:42;24.73;;;4.20;;
22320;SDS011;11328;53.928;18.522;2023-02-01T07:49:09;21.95;;;4.07;;
22320;SDS011;11328;53.928;18.522;2023-02-01T07:51:36;26.85;;;4.20;;
22320;SDS011;11328;53.928;18.522;2023-02-01T07:54:03;23.25;;;4.00;;
22320;SDS011;11328;53.928;18.522;2023-02-01T07:56:31;24.83;;;4.53;;
22320;SDS011;11328;53.928;18.522;2023-02-01T07:58:58;26.55;;;4.72;;
22320;SDS011;11328;53.928;18.522;2023-02-01T08:01:27;26.75;;;4.25;;
22320;SDS011;11328;53.928;18.522;2023-02-01T08:03:56;30.42;;;5.18;;
22320;SDS011;11328;53.928;18.522;2023-02-01T08:06:30;19.38;;;3.47;;
22320;SDS011;11328;53.928;18.522;2023-02-01T08:09:00;21.95;;;4.05;;
22320;SDS011;11328;53.928;18.522;2023-02-01T08:11:29;16.70;;;3.60;;
22320;SDS011;11328;53.928;18.522;2023-02-01T08:13:58;21.52;;;4.05;;
22320;SDS011;11328;53.928;18.522;2023-02-01T08:16:26;20.42;;;3.50;;
22320;SDS011;11328;53.928;18.522;2023-02-01T08:18:56;20.15;;;3.90;;
22320;SDS011;11328;53.928;18.522;2023-02-01T08:22:04;18.80;;;3.80;;
22320;SDS011;11328;53.928;18.522;2023-02-01T08:24:33;18.05;;;4.28;;
22320;SDS011;11328;53.928;18.522;2023-02-01T08:27:01;21.30;;;3.25;;
22320;SDS011;11328;53.928;18.522;2023-02-01T08:29:28;24.33;;;3.83;;
22320;SDS011;11328;53.928;18.522;2023-02-01T08:31:56;15.73;;;3.22;;
22320;SDS011;11328;53.928;18.522;2023-02-01T08:34:23;12.27;;;2.60;;
22320;SDS011;11328;53.928;18.522;2023-02-01T08:36:52;12.82;;;2.72;;
22320;SDS011;11328;53.928;18.522;2023-02-01T08:39:29;14.38;;;2.90;;
22320;SDS011;11328;53.928;18.522;2023-02-01T08:41:56;15.00;;;2.83;;
22320;SDS011;11328;53.928;18.522;2023-02-01T08:44:41;15.82;;;3.10;;
22320;SDS011;11328;53.928;18.522;2023-02-01T08:47:09;19.60;;;3.40;;
22320;SDS011;11328;53.928;18.522;2023-02-01T08:49:37;15.45;;;3.15;;
22320;SDS011;11328;53.928;18.522;2023-02-01T08:52:04;15.82;;;3.60;;
22320;SDS011;11328;53.928;18.522;2023-02-01T08:54:40;19.90;;;3.85;;
22320;SDS011;11328;53.928;18.522;2023-02-01T08:57:08;19.83;;;3.83;;
22320;SDS011;11328;53.928;18.522;2023-02-01T08:59:35;17.88;;;4.05;;
22320;SDS011;11328;53.928;18.522;2023-02-01T09:02:03;20.35;;;3.58;;
22320;SDS011;11328;53.928;18.522;2023-02-01T09:04:30;17.40;;;3.38;;
22320;SDS011;11328;53.928;18.522;2023-02-01T09:06:57;14.60;;;3.95;;
22320;SDS011;11328;53.928;18.522;2023-02-01T09:09:27;16.58;;;3.72;;
22320;SDS011;11328;53.928;18.522;2023-02-01T09:11:54;24.48;;;3.80;;
22320;SDS011;11328;53.928;18.522;2023-02-01T09:14:21;18.50;;;4.00;;
22320;SDS011;11328;53.928;18.522;2023-02-01T09:16:48;20.85;;;4.57;;
22320;SDS011;11328;53.928;18.522;2023-02-01T09:19:15;25.30;;;4.10;;
22320;SDS011;11328;53.928;18.522;2023-02-01T09:21:52;20.60;;;4.47;;
22320;SDS011;11328;53.928;18.522;2023-02-01T09:24:19;22.05;;;4.30;;
22320;SDS011;11328;53.928;18.522;2023-02-01T09:26:46;22.15;;;3.88;;
22320;SDS011;11328;53.928;18.522;2023-02-01T09:29:14;24.77;;;4.28;;
22320;SDS011;11328;53.928;18.522;2023-02-01T09:31:41;23.85;;;4.47;;
22320;SDS011;11328;53.928;18.522;2023-02-01T09:34:22;22.63;;;4.32;;
22320;SDS011;11328;53.928;18.522;2023-02-01T09:36:50;23.95;;;4.38;;
22320;SDS011;11328;53.928;18.522;2023-02-01T09:39:17;24.40;;;4.28;;
22320;SDS011;11328;53.928;18.522;2023-02-01T09:44:32;23.13;;;4.60;;
22320;SDS011;11328;53.928;18.522;2023-02-01T09:47:19;24.93;;;5.10;;
22320;SDS011;11328;53.928;18.522;2023-02-01T09:52:30;22.77;;;4.68;;
22320;SDS011;11328;53.928;18.522;2023-02-01T10:11:02;21.63;;;4.22;;
22320;SDS011;11328;53.928;18.522;2023-02-01T10:13:59;24.75;;;4.57;;
22320;SDS011;11328;53.928;18.522;2023-02-01T10:16:51;23.52;;;4.30;;
22320;SDS011;11328;53.928;18.522;2023-02-01T10:22:46;20.48;;;4.50;;
22320;SDS011;11328;53.928;18.522;2023-02-01T10:25:56;22.88;;;4.82;;
22320;SDS011;11328;53.928;18.522;2023-02-01T10:28:51;24.80;;;4.78;;
22320;SDS011;11328;53.928;18.522;2023-02-01T10:31:28;18.80;;;4.05;;
22320;SDS011;11328;53.928;18.522;2023-02-01T10:34:23;16.98;;;3.65;;
22320;SDS011;11328;53.928;18.522;2023-02-01T10:36:59;19.60;;;5.07;;
22320;SDS011;11328;53.928;18.522;2023-02-01T10:50:49;16.77;;;4.45;;
22320;SDS011;11328;53.928;18.522;2023-02-01T10:53:25;18.30;;;4.13;;
22320;SDS011;11328;53.928;18.522;2023-02-01T10:56:06;14.75;;;3.63;;
22320;SDS011;11328;53.928;18.522;2023-02-01T10:58:36;21.05;;;3.58;;
22320;SDS011;11328;53.928;18.522;2023-02-01T12:06:55;15.48;;;3.72;;
22320;SDS011;11328;53.928;18.522;2023-02-01T12:15:11;15.57;;;4.63;;
22320;SDS011;11328;53.928;18.522;2023-02-01T12:18:12;18.65;;;4.15;;
22320;SDS011;11328;53.928;18.522;2023-02-01T12:27:25;19.83;;;4.50;;
22320;SDS011;11328;53.928;18.522;2023-02-01T12:30:15;15.70;;;4.40;;
22320;SDS011;11328;53.928;18.522;2023-02-01T12:41:45;20.33;;;4.85;;
22320;SDS011;11328;53.928;18.522;2023-02-01T12:47:30;16.77;;;4.32;;
22320;SDS011;11328;53.928;18.522;2023-02-01T12:52:56;15.05;;;7.55;;
22320;SDS011;11328;53.928;18.522;2023-02-01T12:55:53;14.20;;;4.93;;
22320;SDS011;11328;53.928;18.522;2023-02-01T12:58:30;14.32;;;4.70;;
22320;SDS011;11328;53.928;18.522;2023-02-01T13:01:30;13.23;;;4.40;;
22320;SDS011;11328;53.928;18.522;2023-02-01T13:06:52;11.60;;;3.30;;
22320;SDS011;11328;53.928;18.522;2023-02-01T13:09:39;8.10;;;2.70;;
22320;SDS011;11328;53.928;18.522;2023-02-01T13:12:22;12.55;;;3.55;;
22320;SDS011;11328;53.928;18.522;2023-02-01T13:18:18;11.75;;;3.25;;
22320;SDS011;11328;53.928;18.522;2023-02-01T13:20:51;12.57;;;3.25;;
22320;SDS011;11328;53.928;18.522;2023-02-01T13:23:29;8.40;;;2.78;;
22320;SDS011;11328;53.928;18.522;2023-02-01T13:26:01;8.07;;;2.83;;
22320;SDS011;11328;53.928;18.522;2023-02-01T13:40:33;14.75;;;3.50;;
22320;SDS011;11328;53.928;18.522;2023-02-01T13:43:14;15.30;;;3.42;;
22320;SDS011;11328;53.928;18.522;2023-02-01T13:45:51;11.77;;;3.10;;
22320;SDS011;11328;53.928;18.522;2023-02-01T13:48:38;14.40;;;3.70;;
22320;SDS011;11328;53.928;18.522;2023-02-01T13:51:28;13.38;;;3.22;;
22320;SDS011;11328;53.928;18.522;2023-02-01T13:54:07;13.65;;;3.38;;
22320;SDS011;11328;53.928;18.522;2023-02-01T13:56:51;10.95;;;3.00;;
22320;SDS011;11328;53.928;18.522;2023-02-01T14:05:08;12.95;;;3.13;;
22320;SDS011;11328;53.928;18.522;2023-02-01T14:13:39;14.93;;;2.90;;
22320;SDS011;11328;53.928;18.522;2023-02-01T14:16:13;11.30;;;2.70;;
22320;SDS011;11328;53.928;18.522;2023-02-01T14:21:23;10.75;;;2.92;;
22320;SDS011;11328;53.928;18.522;2023-02-01T14:24:00;11.77;;;3.88;;
22320;SDS011;11328;53.928;18.522;2023-02-01T14:34:36;13.73;;;3.97;;
22320;SDS011;11328;53.928;18.522;2023-02-01T14:50:32;20.42;;;4.93;;
22320;SDS011;11328;53.928;18.522;2023-02-01T14:55:44;16.75;;;4.68;;
22320;SDS011;11328;53.928;18.522;2023-02-01T15:01:02;11.18;;;3.25;;
22320;SDS011;11328;53.928;18.522;2023-02-01T15:06:56;13.57;;;3.60;;
22320;SDS011;11328;53.928;18.522;2023-02-01T15:09:31;10.60;;;3.42;;
22320;SDS011;11328;53.928;18.522;2023-02-01T15:14:42;10.90;;;3.40;;
22320;SDS011;11328;53.928;18.522;2023-02-01T15:17:29;13.30;;;3.33;;
22320;SDS011;11328;53.928;18.522;2023-02-01T15:20:02;10.48;;;3.30;;
22320;SDS011;11328;53.928;18.522;2023-02-01T15:22:38;13.30;;;3.75;;
22320;SDS011;11328;53.928;18.522;2023-02-01T15:25:05;11.45;;;3.75;;
22320;SDS011;11328;53.928;18.522;2023-02-01T15:27:47;16.17;;;5.80;;
22320;SDS011;11328;53.928;18.522;2023-02-01T15:30:18;16.55;;;5.15;;
22320;SDS011;11328;53.928;18.522;2023-02-01T15:32:51;16.95;;;3.53;;
22320;SDS011;11328;53.928;18.522;2023-02-01T15:35:35;13.48;;;5.70;;
22320;SDS011;11328;53.928;18.522;2023-02-01T15:43:37;25.63;;;9.82;;
22320;SDS011;11328;53.928;18.522;2023-02-01T15:46:31;15.15;;;4.15;;
22320;SDS011;11328;53.928;18.522;2023-02-01T15:49:02;13.65;;;3.50;;
22320;SDS011;11328;53.928;18.522;2023-02-01T15:51:31;14.25;;;4.22;;
22320;SDS011;11328;53.928;18.522;2023-02-01T15:53:59;14.00;;;4.15;;
22320;SDS011;11328;53.928;18.522;2023-02-01T15:56:36;13.52;;;4.57;;
22320;SDS011;11328;53.928;18.522;2023-02-01T15:59:15;13.73;;;3.90;;
22320;SDS011;11328;53.928;18.522;2023-02-01T16:01:45;16.23;;;5.63;;
22320;SDS011;11328;53.928;18.522;2023-02-01T16:06:55;16.85;;;5.03;;
22320;SDS011;11328;53.928;18.522;2023-02-01T16:09:38;16.73;;;4.00;;
22320;SDS011;11328;53.928;18.522;2023-02-01T16:15:13;22.20;;;4.90;;
22320;SDS011;11328;53.928;18.522;2023-02-01T16:17:40;20.15;;;5.40;;
22320;SDS011;11328;53.928;18.522;2023-02-01T16:20:09;16.50;;;4.45;;
22320;SDS011;11328;53.928;18.522;2023-02-01T16:22:37;16.63;;;4.60;;
22320;SDS011;11328;53.928;18.522;2023-02-01T16:25:04;18.05;;;4.00;;
22320;SDS011;11328;53.928;18.522;2023-02-01T16:27:32;15.73;;;3.90;;
22320;SDS011;11328;53.928;18.522;2023-02-01T16:29:59;24.58;;;7.45;;
22320;SDS011;11328;53.928;18.522;2023-02-01T16:32:29;27.83;;;7.68;;
22320;SDS011;11328;53.928;18.522;2023-02-01T16:34:56;27.13;;;8.30;;
22320;SDS011;11328;53.928;18.522;2023-02-01T16:37:24;35.28;;;9.80;;
22320;SDS011;11328;53.928;18.522;2023-02-01T16:39:54;29.42;;;8.63;;
22320;SDS011;11328;53.928;18.522;2023-02-01T16:42:20;25.85;;;8.07;;
22320;SDS011;11328;53.928;18.522;2023-02-01T16:44:47;17.20;;;5.03;;
22320;SDS011;11328;53.928;18.522;2023-02-01T16:47:16;24.02;;;7.07;;
22320;SDS011;11328;53.928;18.522;2023-02-01T16:49:48;19.45;;;6.40;;
22320;SDS011;11328;53.928;18.522;2023-02-01T16:52:19;15.75;;;6.65;;
22320;SDS011;11328;53.928;18.522;2023-02-01T16:54:51;18.27;;;6.38;;
22320;SDS011;11328;53.928;18.522;2023-02-01T16:57:19;18.85;;;5.13;;
22320;SDS011;11328;53.928;18.522;2023-02-01T16:59:50;18.75;;;4.57;;
22320;SDS011;11328;53.928;18.522;2023-02-01T17:02:17;17.58;;;5.35;;
22320;SDS011;11328;53.928;18.522;2023-02-01T17:04:47;16.65;;;4.57;;
22320;SDS011;11328;53.928;18.522;2023-02-01T17:07:15;15.10;;;3.95;;
22320;SDS011;11328;53.928;18.522;2023-02-01T17:09:45;17.77;;;4.70;;
22320;SDS011;11328;53.928;18.522;2023-02-01T17:12:23;16.02;;;4.30;;
22320;SDS011;11328;53.928;18.522;2023-02-01T17:14:52;16.48;;;3.90;;
22320;SDS011;11328;53.928;18.522;2023-02-01T17:17:20;13.60;;;3.47;;
22320;SDS011;11328;53.928;18.522;2023-02-01T17:20:03;10.57;;;3.97;;
22320;SDS011;11328;53.928;18.522;2023-02-01T17:22:32;21.35;;;4.57;;
22320;SDS011;11328;53.928;18.522;2023-02-01T17:24:59;16.25;;;4.70;;
22320;SDS011;11328;53.928;18.522;2023-02-01T17:27:26;15.80;;;4.70;;
22320;SDS011;11328;53.928;18.522;2023-02-01T17:29:55;19.75;;;4.85;;
22320;SDS011;11328;53.928;18.522;2023-02-01T17:32:22;15.90;;;4.28;;
22320;SDS011;11328;53.928;18.522;2023-02-01T17:34:51;15.15;;;5.05;;
22320;SDS011;11328;53.928;18.522;2023-02-01T17:39:52;17.77;;;4.85;;
22320;SDS011;11328;53.928;18.522;2023-02-01T17:42:23;21.52;;;5.53;;
22320;SDS011;11328;53.928;18.522;2023-02-01T17:44:54;17.00;;;4.88;;
22320;SDS011;11328;53.928;18.522;2023-02-01T17:47:25;27.25;;;9.02;;
22320;SDS011;11328;53.928;18.522;2023-02-01T17:49:52;27.83;;;9.85;;
22320;SDS011;11328;53.928;18.522;2023-02-01T17:52:23;21.35;;;6.47;;
22320;SDS011;11328;53.928;18.522;2023-02-01T17:54:51;13.73;;;4.20;;
22320;SDS011;11328;53.928;18.522;2023-02-01T17:57:19;17.10;;;6.38;;
22320;SDS011;11328;53.928;18.522;2023-02-01T17:59:46;15.35;;;5.75;;
22320;SDS011;11328;53.928;18.522;2023-02-01T18:02:18;16.30;;;4.75;;
22320;SDS011;11328;53.928;18.522;2023-02-01T18:04:50;17.95;;;5.35;;
22320;SDS011;11328;53.928;18.522;2023-02-01T18:07:18;14.85;;;4.32;;
22320;SDS011;11328;53.928;18.522;2023-02-01T18:09:47;19.35;;;4.72;;
22320;SDS011;11328;53.928;18.522;2023-02-01T18:12:18;17.38;;;3.97;;
22320;SDS011;11328;53.928;18.522;2023-02-01T18:14:50;17.92;;;7.15;;
22320;SDS011;11328;53.928;18.522;2023-02-01T18:17:17;22.85;;;8.57;;
22320;SDS011;11328;53.928;18.522;2023-02-01T18:19:45;16.92;;;5.22;;
22320;SDS011;11328;53.928;18.522;2023-02-01T18:22:14;20.83;;;5.20;;
22320;SDS011;11328;53.928;18.522;2023-02-01T18:24:44;19.25;;;5.95;;
22320;SDS011;11328;53.928;18.522;2023-02-01T18:27:13;17.40;;;6.07;;
22320;SDS011;11328;53.928;18.522;2023-02-01T18:29:39;18.15;;;5.45;;
22320;SDS011;11328;53.928;18.522;2023-02-01T18:32:08;20.52;;;4.85;;
22320;SDS011;11328;53.928;18.522;2023-02-01T18:34:36;21.92;;;6.35;;
22320;SDS011;11328;53.928;18.522;2023-02-01T18:37:03;20.15;;;4.57;;
22320;SDS011;11328;53.928;18.522;2023-02-01T18:39:30;15.07;;;4.55;;
22320;SDS011;11328;53.928;18.522;2023-02-01T18:41:57;16.27;;;4.90;;
22320;SDS011;11328;53.928;18.522;2023-02-01T18:44:24;15.48;;;4.70;;
22320;SDS011;11328;53.928;18.522;2023-02-01T18:46:51;17.90;;;4.90;;
22320;SDS011;11328;53.928;18.522;2023-02-01T18:49:18;18.02;;;6.18;;
22320;SDS011;11328;53.928;18.522;2023-02-01T18:51:45;22.13;;;5.10;;
22320;SDS011;11328;53.928;18.522;2023-02-01T18:54:12;16.02;;;4.45;;
22320;SDS011;11328;53.928;18.522;2023-02-01T18:56:39;18.83;;;5.25;;
22320;SDS011;11328;53.928;18.522;2023-02-01T18:59:08;19.33;;;5.82;;
22320;SDS011;11328;53.928;18.522;2023-02-01T19:01:36;17.88;;;4.80;;
22320;SDS011;11328;53.928;18.522;2023-02-01T19:04:03;22.50;;;4.97;;
22320;SDS011;11328;53.928;18.522;2023-02-01T19:06:50;15.23;;;4.10;;
22320;SDS011;11328;53.928;18.522;2023-02-01T19:09:17;16.33;;;4.15;;
22320;SDS011;11328;53.928;18.522;2023-02-01T19:11:44;15.27;;;4.38;;
22320;SDS011;11328;53.928;18.522;2023-02-01T19:14:11;13.20;;;4.50;;